Terminal Aerodrome Forecast
Issued by NWS

Home | Current Version | Previous Version | Text Only | Print | Product List | Glossary On
Versions: 1 2 3 4 5 6 7 8 9 10 11 12 13 14 15 16 17 18 19 20
000
FTUS44 KBMX 160500
TAFTOI
TAF
KTOI 160539Z 1606/1706 34005KT P6SM SKC
     FM161000 03006KT P6SM SKC
     FM161500 09009G15KT P6SM SKC
     FM170000 VRB03KT P6SM SKC=

USA.gov is the U.S. government's official web portal to all federal, state and local government web resources and services.